createdAt,value
2018-08-06T00:00:01.431Z,18.60
2018-08-06T00:03:09.330Z,18.50
2018-08-06T00:05:37.447Z,18.40
2018-08-06T00:08:06.164Z,18.20
2018-08-06T00:10:42.306Z,18.10
2018-08-06T00:13:30.867Z,18.10
2018-08-06T00:15:58.993Z,18.00
2018-08-06T00:18:26.886Z,18.00
2018-08-06T00:20:55.091Z,18.00
2018-08-06T00:23:23.043Z,17.90
2018-08-06T00:25:51.456Z,17.90
2018-08-06T00:28:19.513Z,17.80
2018-08-06T00:30:47.766Z,17.70
2018-08-06T00:33:15.618Z,17.50
2018-08-06T00:38:11.613Z,17.40
2018-08-06T00:40:40.026Z,17.20
2018-08-06T00:43:07.962Z,17.20
2018-08-06T00:45:35.992Z,17.00
2018-08-06T00:48:03.926Z,16.90
2018-08-06T00:50:32.339Z,16.80
2018-08-06T00:53:00.437Z,16.70
2018-08-06T00:55:28.346Z,16.60
2018-08-06T00:57:56.242Z,16.50
2018-08-06T01:00:24.188Z,16.40
2018-08-06T01:02:52.047Z,16.30
2018-08-06T01:05:20.172Z,16.30
2018-08-06T01:07:48.084Z,16.20
2018-08-06T01:10:17.551Z,16.10
2018-08-06T01:12:45.561Z,16.10
2018-08-06T01:15:16.804Z,16.00
2018-08-06T01:20:21.850Z,15.90
2018-08-06T01:22:50.314Z,15.90
2018-08-06T01:29:00.367Z,16.10
2018-08-06T01:31:28.364Z,16.20
2018-08-06T01:33:56.460Z,16.20
2018-08-06T01:36:24.322Z,16.20
2018-08-06T01:38:52.133Z,16.20
2018-08-06T01:44:30.408Z,16.10
2018-08-06T01:51:08.941Z,16.30
2018-08-06T01:59:22.818Z,16.30
2018-08-06T02:01:56.781Z,16.40
2018-08-06T02:04:24.921Z,16.40
2018-08-06T02:07:32.019Z,16.30
2018-08-06T02:10:00.160Z,16.30
2018-08-06T02:12:39.135Z,16.10
2018-08-06T02:15:08.224Z,16.00
2018-08-06T02:18:06.580Z,15.80
2018-08-06T02:20:34.464Z,15.50
2018-08-06T02:23:02.466Z,15.20
2018-08-06T02:25:30.262Z,15.00
2018-08-06T02:27:58.164Z,15.00
2018-08-06T02:30:26.001Z,15.00
2018-08-06T02:32:53.899Z,15.00
2018-08-06T02:35:21.692Z,14.90
2018-08-06T02:37:49.466Z,15.00
2018-08-06T02:40:19.605Z,15.00
2018-08-06T02:42:47.654Z,15.00
2018-08-06T02:45:15.925Z,15.00
2018-08-06T02:47:43.762Z,15.00
2018-08-06T02:55:47.694Z,14.90
2018-08-06T02:58:15.579Z,14.90
2018-08-06T03:00:43.558Z,14.90
2018-08-06T03:03:11.438Z,14.90
2018-08-06T03:05:39.349Z,14.90
2018-08-06T03:08:07.258Z,14.80
2018-08-06T03:10:35.212Z,14.80
2018-08-06T03:13:03.158Z,14.60
2018-08-06T03:15:31.207Z,14.50
2018-08-06T03:17:59.035Z,14.40
2018-08-06T03:20:26.950Z,14.30
2018-08-06T03:22:54.830Z,14.20
2018-08-06T03:25:22.831Z,14.10
2018-08-06T03:27:50.728Z,13.90
2018-08-06T03:30:18.639Z,13.80
2018-08-06T03:32:47.718Z,13.70
2018-08-06T03:35:15.790Z,13.80
2018-08-06T03:37:43.738Z,13.80
2018-08-06T03:40:11.797Z,13.70
2018-08-06T03:42:39.788Z,13.70
2018-08-06T03:45:09.292Z,13.70
2018-08-06T03:47:37.292Z,13.80
2018-08-06T03:50:06.189Z,13.80
2018-08-06T03:52:34.043Z,13.80
2018-08-06T03:55:02.016Z,13.80
2018-08-06T03:57:37.061Z,13.80
2018-08-06T04:00:06.670Z,13.80
2018-08-06T04:02:35.500Z,13.70
2018-08-06T04:05:04.142Z,13.60
2018-08-06T04:07:31.965Z,13.50
2018-08-06T04:09:59.779Z,13.50
2018-08-06T04:12:27.578Z,13.50
2018-08-06T04:14:55.441Z,13.50
2018-08-06T04:17:24.247Z,13.50
2018-08-06T04:19:52.024Z,13.50
2018-08-06T04:22:20.854Z,13.60
2018-08-06T04:24:48.673Z,13.70
2018-08-06T04:27:16.431Z,13.80
2018-08-06T04:30:04.310Z,13.90
2018-08-06T04:32:32.116Z,14.00
2018-08-06T04:35:00.916Z,14.20
2018-08-06T04:37:28.744Z,14.20
2018-08-06T04:39:56.504Z,14.30
2018-08-06T04:42:24.297Z,14.30
2018-08-06T04:44:52.050Z,14.30
2018-08-06T04:50:02.469Z,14.40
2018-08-06T04:52:31.279Z,14.50
2018-08-06T04:55:25.545Z,14.60
2018-08-06T04:57:53.362Z,14.80
2018-08-06T05:00:21.190Z,14.90
2018-08-06T05:02:49.035Z,15.10
2018-08-06T05:05:37.776Z,15.20
2018-08-06T05:08:05.713Z,15.40
2018-08-06T05:10:33.475Z,15.60
2018-08-06T05:34:40.370Z,18.10
2018-08-06T05:37:29.427Z,18.40
2018-08-06T05:39:57.398Z,18.50
2018-08-06T06:00:19.707Z,19.60
2018-08-06T06:17:08.289Z,20.70
2018-08-06T06:19:36.106Z,20.60
2018-08-06T06:22:04.000Z,20.40
2018-08-06T06:24:31.856Z,20.30
2018-08-06T06:26:59.769Z,20.50
2018-08-06T06:29:27.908Z,20.50
2018-08-06T06:35:04.202Z,20.70
2018-08-06T06:55:29.252Z,22.20
2018-08-06T07:15:51.761Z,22.70
2018-08-06T07:36:14.643Z,24.40
2018-08-06T07:38:42.667Z,24.70
2018-08-06T07:41:12.493Z,24.40
2018-08-06T07:43:40.404Z,24.30
2018-08-06T07:46:08.356Z,24.60
2018-08-06T07:48:36.272Z,24.50
2018-08-06T07:51:05.406Z,24.60
2018-08-06T07:53:33.219Z,24.90
2018-08-06T07:56:03.015Z,25.10
2018-08-06T07:58:30.832Z,25.80
2018-08-06T08:00:58.734Z,25.50
2018-08-06T08:03:46.186Z,25.70
2018-08-06T08:06:14.099Z,26.20
2018-08-06T08:08:41.969Z,26.30
2018-08-06T08:11:09.796Z,26.10
2018-08-06T08:13:37.585Z,25.90
2018-08-06T08:16:05.674Z,26.60
2018-08-06T08:18:34.463Z,26.90
2018-08-06T08:21:02.316Z,26.60
2018-08-06T08:23:30.178Z,26.70
2018-08-06T08:25:58.019Z,27.00
2018-08-06T08:28:25.823Z,26.90
2018-08-06T08:30:53.682Z,27.10
2018-08-06T08:33:21.498Z,27.30
2018-08-06T08:36:11.036Z,28.00
2018-08-06T08:38:39.227Z,27.30
2018-08-06T08:41:08.735Z,27.50
2018-08-06T08:43:37.116Z,28.20
2018-08-06T08:46:06.012Z,28.40
2018-08-06T08:48:34.381Z,28.90
2018-08-06T08:51:02.657Z,29.70
2018-08-06T08:53:37.577Z,29.40
2018-08-06T08:56:05.622Z,28.80
2018-08-06T08:58:33.529Z,29.50
2018-08-06T09:01:01.403Z,29.70
2018-08-06T09:03:29.294Z,29.70
2018-08-06T09:05:57.122Z,29.60
2018-08-06T09:08:24.890Z,29.40
2018-08-06T09:10:52.699Z,29.60
2018-08-06T09:13:20.483Z,29.40
2018-08-06T09:15:48.524Z,29.10
2018-08-06T09:18:16.534Z,29.10
2018-08-06T09:20:44.463Z,29.10
2018-08-06T09:23:12.463Z,29.40
2018-08-06T09:25:40.452Z,29.90
2018-08-06T09:28:09.397Z,29.60
2018-08-06T09:30:37.250Z,29.80
2018-08-06T09:33:05.289Z,29.60
2018-08-06T09:35:33.294Z,29.50
2018-08-06T09:38:01.325Z,29.20
2018-08-06T09:40:29.295Z,30.20
2018-08-06T09:42:57.219Z,30.20
2018-08-06T09:45:25.200Z,30.10
2018-08-06T09:47:53.934Z,30.60
2018-08-06T09:50:22.230Z,31.10
2018-08-06T09:52:52.122Z,30.70
2018-08-06T09:55:22.421Z,30.30
2018-08-06T09:57:50.644Z,30.40
2018-08-06T10:00:26.030Z,31.30
2018-08-06T10:02:55.162Z,31.10
2018-08-06T10:05:25.731Z,31.30
2018-08-06T10:07:53.893Z,30.80
2018-08-06T10:10:21.918Z,31.50
2018-08-06T10:12:49.890Z,31.80
2018-08-06T10:15:18.275Z,30.80
2018-08-06T10:17:47.351Z,31.60
2018-08-06T10:20:17.518Z,32.10
2018-08-06T10:22:45.407Z,32.50
2018-08-06T10:25:14.399Z,32.40
2018-08-06T10:27:43.969Z,32.40
2018-08-06T10:30:15.603Z,32.40
2018-08-06T10:33:09.865Z,32.80
2018-08-06T10:35:37.837Z,31.80
2018-08-06T10:38:05.725Z,32.20
2018-08-06T10:40:33.539Z,33.00
2018-08-06T10:45:49.001Z,31.90
2018-08-06T10:48:18.119Z,32.70
2018-08-06T10:50:45.895Z,33.30
2018-08-06T10:53:13.760Z,33.60
2018-08-06T10:55:41.580Z,33.90
2018-08-06T10:58:09.434Z,33.90
2018-08-06T11:00:37.250Z,32.80
2018-08-06T11:03:05.205Z,32.80
2018-08-06T11:05:32.965Z,33.30
2018-08-06T11:08:00.852Z,33.40
2018-08-06T11:10:28.656Z,33.80
2018-08-06T11:12:58.135Z,34.20
2018-08-06T11:15:26.401Z,34.20
2018-08-06T11:17:54.373Z,33.60
2018-08-06T11:20:23.912Z,33.60
2018-08-06T11:22:51.761Z,33.30
2018-08-06T11:25:20.881Z,33.20
2018-08-06T11:27:48.891Z,33.20
2018-08-06T11:30:18.635Z,32.90
2018-08-06T11:32:47.248Z,32.80
2018-08-06T11:35:15.593Z,32.40
2018-08-06T11:37:43.573Z,32.20
2018-08-06T11:40:12.530Z,32.10
2018-08-06T11:42:41.114Z,32.10
2018-08-06T11:45:11.806Z,32.60
2018-08-06T11:47:39.654Z,33.00
2018-08-06T11:50:08.152Z,32.50
2018-08-06T11:52:35.988Z,33.20
2018-08-06T11:55:04.476Z,34.50
2018-08-06T11:57:32.323Z,35.50
2018-08-06T12:00:00.397Z,36.30
2018-08-06T12:02:28.290Z,35.60
2018-08-06T12:04:57.206Z,35.60
2018-08-06T12:07:42.181Z,36.20
2018-08-06T12:12:59.254Z,35.70
2018-08-06T12:15:27.044Z,36.20
2018-08-06T12:17:54.829Z,36.80
2018-08-06T12:20:25.362Z,36.80
2018-08-06T12:22:53.167Z,35.90
2018-08-06T12:25:22.101Z,35.70
2018-08-06T12:27:50.123Z,36.20
2018-08-06T12:30:20.205Z,36.40
2018-08-06T12:32:48.838Z,36.20
2018-08-06T12:35:17.128Z,35.90
2018-08-06T12:37:45.524Z,36.10
2018-08-06T12:40:15.565Z,36.60
2018-08-06T12:42:44.595Z,35.40
2018-08-06T12:45:40.836Z,35.70
2018-08-06T12:51:02.844Z,36.60
2018-08-06T12:53:30.733Z,37.20
2018-08-06T12:55:59.695Z,36.60
2018-08-06T12:58:27.558Z,36.20
2018-08-06T13:00:55.304Z,36.80
2018-08-06T13:03:23.089Z,37.10
2018-08-06T13:06:09.588Z,37.60
2018-08-06T13:08:37.318Z,38.10
2018-08-06T13:11:05.459Z,38.30
2018-08-06T13:13:33.260Z,38.30
2018-08-06T13:16:01.113Z,38.20
2018-08-06T13:18:29.937Z,38.40
2018-08-06T13:20:57.760Z,38.20
2018-08-06T13:23:25.668Z,38.40
2018-08-06T13:25:53.562Z,38.40
2018-08-06T13:28:45.565Z,38.60
2018-08-06T13:31:13.531Z,38.80
2018-08-06T13:33:42.242Z,37.80
2018-08-06T13:36:10.134Z,37.80
2018-08-06T13:38:47.866Z,37.70
2018-08-06T13:41:36.659Z,38.00
2018-08-06T13:44:04.554Z,38.20
2018-08-06T13:46:32.496Z,38.80
2018-08-06T13:49:00.312Z,38.80
2018-08-06T13:51:28.285Z,37.70
2018-08-06T13:53:56.079Z,36.40
2018-08-06T13:56:23.989Z,37.00
2018-08-06T13:58:51.882Z,38.30
2018-08-06T14:01:19.802Z,39.20
2018-08-06T14:03:47.647Z,39.70
2018-08-06T14:06:15.539Z,39.50
2018-08-06T14:08:43.526Z,40.00
2018-08-06T14:11:12.493Z,39.90
2018-08-06T14:13:40.361Z,40.00
2018-08-06T14:16:08.257Z,39.40
2018-08-06T14:18:36.084Z,38.80
2018-08-06T14:21:05.054Z,38.50
2018-08-06T14:23:32.943Z,38.80
2018-08-06T14:26:01.079Z,39.10
2018-08-06T14:29:19.639Z,39.30
2018-08-06T14:31:47.552Z,38.60
2018-08-06T14:34:16.601Z,38.20
2018-08-06T14:36:44.429Z,38.00
2018-08-06T14:39:12.699Z,37.60
2018-08-06T14:41:40.723Z,36.70
2018-08-06T14:44:09.216Z,36.50
2018-08-06T14:46:37.936Z,36.30
2018-08-06T14:49:06.340Z,36.10
2018-08-06T14:51:34.137Z,35.80
2018-08-06T14:54:02.127Z,36.00
2018-08-06T14:56:30.001Z,36.30
2018-08-06T14:58:57.841Z,36.40
2018-08-06T15:01:25.783Z,36.20
2018-08-06T15:03:53.708Z,36.10
2018-08-06T15:06:21.929Z,35.80
2018-08-06T15:08:49.977Z,35.70
2018-08-06T15:11:17.994Z,35.80
2018-08-06T15:14:00.150Z,35.70
2018-08-06T15:16:27.985Z,35.50
2018-08-06T15:18:55.811Z,35.60
2018-08-06T15:21:23.584Z,35.20
2018-08-06T15:23:51.398Z,34.70
2018-08-06T15:26:27.764Z,34.30
2018-08-06T15:28:55.707Z,34.10
2018-08-06T15:31:23.651Z,34.00
2018-08-06T15:33:52.100Z,33.60
2018-08-06T15:36:20.917Z,33.60
2018-08-06T15:38:48.761Z,33.20
2018-08-06T15:41:16.533Z,33.10
2018-08-06T15:43:44.411Z,32.80
2018-08-06T15:46:12.223Z,32.80
2018-08-06T15:48:39.988Z,32.50
2018-08-06T15:51:07.885Z,32.60
2018-08-06T15:53:35.659Z,32.40
2018-08-06T15:56:03.636Z,32.30
2018-08-06T15:58:31.460Z,32.40
2018-08-06T16:00:59.277Z,32.40
2018-08-06T16:03:27.121Z,32.30
2018-08-06T16:05:54.986Z,32.70
2018-08-06T16:08:22.815Z,32.80
2018-08-06T16:14:35.965Z,32.70
2018-08-06T16:17:04.967Z,32.30
2018-08-06T16:19:32.918Z,32.20
2018-08-06T16:22:01.856Z,32.10
2018-08-06T16:24:29.769Z,32.00
2018-08-06T16:26:58.736Z,32.10
2018-08-06T16:29:26.686Z,31.70
2018-08-06T16:31:56.709Z,31.30
2018-08-06T16:34:24.650Z,31.20
2018-08-06T16:36:54.285Z,30.90
2018-08-06T16:39:22.530Z,30.90
2018-08-06T16:41:52.671Z,30.90
2018-08-06T16:44:20.874Z,30.70
2018-08-06T16:46:49.007Z,30.70
2018-08-06T16:49:16.987Z,30.70
2018-08-06T16:51:46.009Z,30.50
2018-08-06T16:54:13.938Z,30.50
2018-08-06T16:56:42.955Z,30.20
2018-08-06T16:59:10.898Z,30.30
2018-08-06T17:01:38.819Z,30.40
2018-08-06T17:04:06.715Z,30.10
2018-08-06T17:06:34.631Z,30.20
2018-08-06T17:09:02.777Z,30.10
2018-08-06T17:13:56.201Z,29.00
2018-08-06T17:16:24.150Z,28.70
2018-08-06T17:18:52.104Z,28.40
2018-08-06T17:21:19.924Z,28.40
2018-08-06T17:23:47.801Z,28.30
2018-08-06T17:26:15.584Z,28.20
2018-08-06T17:28:44.435Z,28.10
2018-08-06T17:31:12.204Z,28.10
2018-08-06T17:33:40.992Z,27.90
2018-08-06T17:36:08.764Z,27.80
2018-08-06T17:38:36.586Z,27.70
2018-08-06T17:41:04.424Z,27.60
2018-08-06T17:43:32.263Z,27.50
2018-08-06T17:46:00.026Z,27.40
2018-08-06T17:48:28.873Z,27.30
2018-08-06T17:50:56.676Z,27.30
2018-08-06T17:53:24.493Z,27.20
2018-08-06T17:56:09.457Z,27.10
2018-08-06T17:58:37.327Z,27.10
2018-08-06T18:01:05.207Z,27.00
2018-08-06T18:03:33.081Z,27.00
2018-08-06T18:06:01.000Z,26.90
2018-08-06T18:08:28.828Z,26.90
2018-08-06T18:10:56.594Z,26.80
2018-08-06T18:13:26.169Z,26.80
2018-08-06T18:15:53.979Z,26.70
2018-08-06T18:18:21.939Z,26.60
2018-08-06T18:20:49.755Z,26.60
2018-08-06T18:23:17.532Z,26.50
2018-08-06T18:25:46.029Z,26.50
2018-08-06T18:28:13.873Z,26.40
2018-08-06T18:30:41.911Z,26.30
2018-08-06T18:33:09.695Z,26.30
2018-08-06T18:35:37.453Z,26.20
2018-08-06T18:38:06.295Z,26.00
2018-08-06T18:40:34.207Z,26.00
2018-08-06T18:43:02.142Z,25.90
2018-08-06T18:45:29.944Z,25.90
2018-08-06T18:47:58.216Z,25.80
2018-08-06T18:50:26.084Z,25.70
2018-08-06T18:52:53.844Z,25.60
2018-08-06T18:55:21.668Z,25.40
2018-08-06T18:57:49.534Z,25.30
2018-08-06T19:00:21.198Z,25.10
2018-08-06T19:02:49.067Z,24.90
2018-08-06T19:05:17.010Z,24.70
2018-08-06T19:07:44.750Z,24.60
2018-08-06T19:10:12.662Z,24.40
2018-08-06T19:12:46.062Z,24.20
2018-08-06T19:15:14.166Z,24.00
2018-08-06T19:17:47.595Z,23.80
2018-08-06T19:20:15.797Z,23.60
2018-08-06T19:22:44.799Z,23.40
2018-08-06T19:25:18.187Z,23.40
2018-08-06T19:27:45.991Z,23.30
2018-08-06T19:30:13.852Z,23.20
2018-08-06T19:32:41.783Z,23.10
2018-08-06T19:35:10.610Z,22.90
2018-08-06T19:37:43.935Z,22.70
2018-08-06T19:40:11.890Z,22.60
2018-08-06T19:42:45.636Z,22.50
2018-08-06T19:45:13.748Z,22.30
2018-08-06T19:47:42.273Z,22.10
2018-08-06T19:50:15.667Z,21.90
2018-08-06T19:52:43.517Z,21.70
2018-08-06T19:55:16.914Z,21.50
2018-08-06T19:57:44.772Z,21.40
2018-08-06T20:00:14.113Z,21.40
2018-08-06T20:02:43.017Z,21.30
2018-08-06T20:05:10.868Z,21.20
2018-08-06T20:07:38.730Z,21.10
2018-08-06T20:10:08.218Z,21.00
2018-08-06T20:12:36.053Z,21.00
2018-08-06T20:15:06.172Z,20.80
2018-08-06T20:21:19.545Z,20.50
2018-08-06T20:24:29.579Z,20.30
2018-08-06T20:27:02.842Z,20.10
2018-08-06T20:33:45.662Z,19.90
2018-08-06T20:39:54.326Z,19.80
2018-08-06T20:42:23.062Z,19.70
2018-08-06T20:44:52.713Z,19.70
2018-08-06T20:47:22.424Z,19.80
2018-08-06T20:49:53.648Z,19.80
2018-08-06T20:52:22.751Z,19.60
2018-08-06T20:54:51.937Z,19.40
2018-08-06T20:57:20.750Z,19.30
2018-08-06T20:59:50.888Z,19.10
2018-08-06T21:02:19.875Z,19.00
2018-08-06T21:04:51.011Z,19.00
2018-08-06T21:07:21.480Z,19.10
2018-08-06T21:09:52.056Z,19.00
2018-08-06T21:12:21.416Z,18.90
2018-08-06T21:14:53.313Z,18.70
2018-08-06T21:18:00.854Z,18.60
2018-08-06T21:20:28.828Z,18.60
2018-08-06T21:22:56.661Z,18.60
2018-08-06T21:25:24.680Z,18.70
2018-08-06T21:27:52.603Z,18.80
2018-08-06T21:30:21.206Z,18.90
2018-08-06T21:32:53.270Z,18.60
2018-08-06T21:35:21.983Z,18.50
2018-08-06T21:37:50.879Z,18.30
2018-08-06T21:40:19.392Z,18.40
2018-08-06T21:42:47.715Z,18.30
2018-08-06T21:45:15.642Z,18.10
2018-08-06T21:47:43.750Z,18.10
2018-08-06T21:50:12.198Z,18.10
2018-08-06T21:52:41.045Z,18.10
2018-08-06T21:55:09.480Z,18.00
2018-08-06T21:57:38.332Z,18.00
2018-08-06T22:00:42.835Z,18.00
2018-08-06T22:03:15.135Z,17.80
2018-08-06T22:05:43.229Z,18.00
2018-08-06T22:08:11.146Z,18.10
2018-08-06T22:10:39.203Z,17.90
2018-08-06T22:13:09.007Z,17.80
2018-08-06T22:15:37.012Z,17.80
2018-08-06T22:18:05.256Z,17.80
2018-08-06T22:20:33.087Z,18.00
2018-08-06T22:23:00.916Z,17.90
2018-08-06T22:25:28.723Z,17.80
2018-08-06T22:27:56.603Z,17.80
2018-08-06T22:30:24.428Z,17.70
2018-08-06T22:32:52.439Z,17.60
2018-08-06T22:35:20.297Z,17.50
2018-08-06T22:37:48.144Z,17.40
2018-08-06T22:40:17.093Z,17.30
2018-08-06T22:42:44.863Z,17.30
2018-08-06T22:45:12.915Z,17.20
2018-08-06T22:47:41.620Z,17.20
2018-08-06T22:50:10.887Z,17.20
2018-08-06T22:52:39.010Z,17.20
2018-08-06T22:58:27.160Z,17.30
2018-08-06T23:00:55.189Z,17.40
2018-08-06T23:03:23.087Z,17.40
2018-08-06T23:05:51.024Z,17.30
2018-08-06T23:08:18.910Z,17.20
2018-08-06T23:10:46.979Z,17.10
2018-08-06T23:13:14.898Z,17.10
2018-08-06T23:15:42.883Z,17.10
2018-08-06T23:18:10.893Z,17.10
2018-08-06T23:20:38.880Z,17.10
2018-08-06T23:23:06.854Z,17.00
2018-08-06T23:25:34.915Z,17.00
2018-08-06T23:28:02.912Z,16.90
2018-08-06T23:30:30.943Z,16.90
2018-08-06T23:32:58.914Z,17.00
2018-08-06T23:35:26.871Z,17.10
2018-08-06T23:37:54.791Z,17.10
2018-08-06T23:40:22.861Z,17.10
2018-08-06T23:42:50.749Z,16.90
2018-08-06T23:45:18.731Z,16.90
2018-08-06T23:47:46.614Z,17.10
2018-08-06T23:50:15.083Z,17.30
2018-08-06T23:52:44.054Z,17.30
2018-08-06T23:55:13.405Z,17.10
2018-08-06T23:57:41.503Z,17.00
